sensor_id;sensor_type;location;lat;lon;timestamp;temperature;humidity
9998;DHT22;5038;53.064;8.624;2022-09-12T00:01:11;14.40;99.90
9998;DHT22;5038;53.064;8.624;2022-09-12T00:03:40;14.40;99.90
9998;DHT22;5038;53.064;8.624;2022-09-12T00:06:10;14.30;99.90
9998;DHT22;5038;53.064;8.624;2022-09-12T00:08:39;14.30;99.90
9998;DHT22;5038;53.064;8.624;2022-09-12T00:11:10;14.30;99.90
9998;DHT22;5038;53.064;8.624;2022-09-12T00:13:39;14.30;99.90
9998;DHT22;5038;53.064;8.624;2022-09-12T00:16:14;14.20;99.90
9998;DHT22;5038;53.064;8.624;2022-09-12T00:18:43;14.20;99.90
9998;DHT22;5038;53.064;8.624;2022-09-12T00:21:13;14.20;99.90
9998;DHT22;5038;53.064;8.624;2022-09-12T00:23:41;14.20;99.90
9998;DHT22;5038;53.064;8.624;2022-09-12T00:26:11;14.20;99.90
9998;DHT22;5038;53.064;8.624;2022-09-12T00:28:41;14.10;99.90
9998;DHT22;5038;53.064;8.624;2022-09-12T00:31:11;14.10;99.90
9998;DHT22;5038;53.064;8.624;2022-09-12T00:33:41;14.10;99.90
9998;DHT22;5038;53.064;8.624;2022-09-12T00:36:11;14.10;99.90
9998;DHT22;5038;53.064;8.624;2022-09-12T00:38:40;14.10;99.90
9998;DHT22;5038;53.064;8.624;2022-09-12T00:41:15;14.00;99.90
9998;DHT22;5038;53.064;8.624;2022-09-12T00:43:45;14.00;99.90
9998;DHT22;5038;53.064;8.624;2022-09-12T00:46:28;14.00;99.90
9998;DHT22;5038;53.064;8.624;2022-09-12T00:49:01;14.00;99.90
9998;DHT22;5038;53.064;8.624;2022-09-12T00:51:32;13.90;99.90
9998;DHT22;5038;53.064;8.624;2022-09-12T00:54:05;13.90;99.90
9998;DHT22;5038;53.064;8.624;2022-09-12T00:56:38;13.90;99.90
9998;DHT22;5038;53.064;8.624;2022-09-12T00:59:09;13.90;99.90
9998;DHT22;5038;53.064;8.624;2022-09-12T01:01:39;13.90;99.90
9998;DHT22;5038;53.064;8.624;2022-09-12T01:04:10;13.80;99.90
9998;DHT22;5038;53.064;8.624;2022-09-12T01:06:41;13.80;99.90
9998;DHT22;5038;53.064;8.624;2022-09-12T01:09:13;13.80;99.90
9998;DHT22;5038;53.064;8.624;2022-09-12T01:11:45;13.80;99.90
9998;DHT22;5038;53.064;8.624;2022-09-12T01:14:15;13.80;99.90
9998;DHT22;5038;53.064;8.624;2022-09-12T01:16:45;13.70;99.90
9998;DHT22;5038;53.064;8.624;2022-09-12T01:19:30;13.70;99.90
9998;DHT22;5038;53.064;8.624;2022-09-12T01:22:10;13.70;99.90
9998;DHT22;5038;53.064;8.624;2022-09-12T01:25:03;13.60;99.90
9998;DHT22;5038;53.064;8.624;2022-09-12T01:28:05;13.60;99.90
9998;DHT22;5038;53.064;8.624;2022-09-12T01:30:46;13.60;99.90
9998;DHT22;5038;53.064;8.624;2022-09-12T01:33:33;13.60;99.90
9998;DHT22;5038;53.064;8.624;2022-09-12T01:36:22;13.50;99.90
9998;DHT22;5038;53.064;8.624;2022-09-12T01:38:57;13.60;99.90
9998;DHT22;5038;53.064;8.624;2022-09-12T01:41:29;13.50;99.90
9998;DHT22;5038;53.064;8.624;2022-09-12T01:44:03;13.50;99.90
9998;DHT22;5038;53.064;8.624;2022-09-12T01:46:41;13.50;99.90
9998;DHT22;5038;53.064;8.624;2022-09-12T01:49:15;13.40;99.90
9998;DHT22;5038;53.064;8.624;2022-09-12T01:51:53;13.50;99.90
9998;DHT22;5038;53.064;8.624;2022-09-12T01:54:26;13.40;99.90
9998;DHT22;5038;53.064;8.624;2022-09-12T01:56:59;13.40;99.90
9998;DHT22;5038;53.064;8.624;2022-09-12T01:59:32;13.40;99.90
9998;DHT22;5038;53.064;8.624;2022-09-12T02:02:05;13.40;99.90
9998;DHT22;5038;53.064;8.624;2022-09-12T02:04:37;13.40;99.90
9998;DHT22;5038;53.064;8.624;2022-09-12T02:07:10;13.40;99.90
9998;DHT22;5038;53.064;8.624;2022-09-12T02:09:44;13.30;99.90
9998;DHT22;5038;53.064;8.624;2022-09-12T02:12:15;13.30;99.90
9998;DHT22;5038;53.064;8.624;2022-09-12T02:14:48;13.30;99.90
9998;DHT22;5038;53.064;8.624;2022-09-12T02:17:21;13.20;99.90
9998;DHT22;5038;53.064;8.624;2022-09-12T02:19:52;13.30;99.90
9998;DHT22;5038;53.064;8.624;2022-09-12T02:22:26;13.20;99.90
9998;DHT22;5038;53.064;8.624;2022-09-12T02:24:58;13.20;99.90
9998;DHT22;5038;53.064;8.624;2022-09-12T02:27:31;13.20;99.90
9998;DHT22;5038;53.064;8.624;2022-09-12T02:30:04;13.10;99.90
9998;DHT22;5038;53.064;8.624;2022-09-12T02:32:36;13.20;99.90
9998;DHT22;5038;53.064;8.624;2022-09-12T02:35:08;13.10;99.90
9998;DHT22;5038;53.064;8.624;2022-09-12T02:37:45;13.10;99.90
9998;DHT22;5038;53.064;8.624;2022-09-12T02:40:16;13.10;99.90
9998;DHT22;5038;53.064;8.624;2022-09-12T02:42:45;13.10;99.90
9998;DHT22;5038;53.064;8.624;2022-09-12T02:45:13;13.10;99.90
9998;DHT22;5038;53.064;8.624;2022-09-12T02:47:46;13.00;99.90
9998;DHT22;5038;53.064;8.624;2022-09-12T02:50:16;13.00;99.90
9998;DHT22;5038;53.064;8.624;2022-09-12T02:52:44;13.00;99.90
9998;DHT22;5038;53.064;8.624;2022-09-12T02:55:13;13.00;99.90
9998;DHT22;5038;53.064;8.624;2022-09-12T02:57:43;13.00;99.90
9998;DHT22;5038;53.064;8.624;2022-09-12T03:00:12;12.90;99.90
9998;DHT22;5038;53.064;8.624;2022-09-12T03:02:57;13.00;99.90
9998;DHT22;5038;53.064;8.624;2022-09-12T03:05:30;12.90;99.90
9998;DHT22;5038;53.064;8.624;2022-09-12T03:08:18;12.90;99.90
9998;DHT22;5038;53.064;8.624;2022-09-12T03:11:03;12.90;99.90
9998;DHT22;5038;53.064;8.624;2022-09-12T03:13:39;12.80;99.90
9998;DHT22;5038;53.064;8.624;2022-09-12T03:16:16;12.80;99.90
9998;DHT22;5038;53.064;8.624;2022-09-12T03:18:52;12.80;99.90
9998;DHT22;5038;53.064;8.624;2022-09-12T03:21:29;12.80;99.90
9998;DHT22;5038;53.064;8.624;2022-09-12T03:24:05;12.80;99.90
9998;DHT22;5038;53.064;8.624;2022-09-12T03:26:40;12.80;99.90
9998;DHT22;5038;53.064;8.624;2022-09-12T03:29:10;12.80;99.90
9998;DHT22;5038;53.064;8.624;2022-09-12T03:31:48;12.70;99.90
9998;DHT22;5038;53.064;8.624;2022-09-12T03:34:19;12.70;99.90
9998;DHT22;5038;53.064;8.624;2022-09-12T03:36:48;12.70;99.90
9998;DHT22;5038;53.064;8.624;2022-09-12T03:39:17;12.60;99.90
9998;DHT22;5038;53.064;8.624;2022-09-12T03:41:46;12.70;99.90
9998;DHT22;5038;53.064;8.624;2022-09-12T03:44:14;12.70;99.90
9998;DHT22;5038;53.064;8.624;2022-09-12T03:46:42;12.60;99.90
9998;DHT22;5038;53.064;8.624;2022-09-12T03:49:11;12.60;99.90
9998;DHT22;5038;53.064;8.624;2022-09-12T03:51:41;12.60;99.90
9998;DHT22;5038;53.064;8.624;2022-09-12T03:54:10;12.60;99.90
9998;DHT22;5038;53.064;8.624;2022-09-12T03:56:38;12.60;99.90
9998;DHT22;5038;53.064;8.624;2022-09-12T03:59:07;12.50;99.90
9998;DHT22;5038;53.064;8.624;2022-09-12T04:01:35;12.50;99.90
9998;DHT22;5038;53.064;8.624;2022-09-12T04:04:04;12.50;99.90
9998;DHT22;5038;53.064;8.624;2022-09-12T04:06:32;12.50;99.90
9998;DHT22;5038;53.064;8.624;2022-09-12T04:09:01;12.50;99.90
9998;DHT22;5038;53.064;8.624;2022-09-12T04:11:30;12.40;99.90
9998;DHT22;5038;53.064;8.624;2022-09-12T04:13:58;12.40;99.90
9998;DHT22;5038;53.064;8.624;2022-09-12T04:16:26;12.50;99.90
9998;DHT22;5038;53.064;8.624;2022-09-12T04:18:54;12.40;99.90
9998;DHT22;5038;53.064;8.624;2022-09-12T04:21:22;12.40;99.90
9998;DHT22;5038;53.064;8.624;2022-09-12T04:23:51;12.40;99.90
9998;DHT22;5038;53.064;8.624;2022-09-12T04:26:20;12.40;99.90
9998;DHT22;5038;53.064;8.624;2022-09-12T04:28:52;12.40;99.90
9998;DHT22;5038;53.064;8.624;2022-09-12T04:31:22;12.30;99.90
9998;DHT22;5038;53.064;8.624;2022-09-12T04:33:53;12.30;99.90
9998;DHT22;5038;53.064;8.624;2022-09-12T04:36:22;12.30;99.90
9998;DHT22;5038;53.064;8.624;2022-09-12T04:38:50;12.30;99.90
9998;DHT22;5038;53.064;8.624;2022-09-12T04:41:22;12.30;99.90
9998;DHT22;5038;53.064;8.624;2022-09-12T04:43:52;12.30;99.90
9998;DHT22;5038;53.064;8.624;2022-09-12T04:46:20;12.30;99.90
9998;DHT22;5038;53.064;8.624;2022-09-12T04:48:48;12.30;99.90
9998;DHT22;5038;53.064;8.624;2022-09-12T04:51:25;12.20;99.90
9998;DHT22;5038;53.064;8.624;2022-09-12T04:53:55;12.20;99.90
9998;DHT22;5038;53.064;8.624;2022-09-12T04:56:26;12.20;99.90
9998;DHT22;5038;53.064;8.624;2022-09-12T04:58:56;12.20;99.90
9998;DHT22;5038;53.064;8.624;2022-09-12T05:01:24;12.20;99.90
9998;DHT22;5038;53.064;8.624;2022-09-12T05:03:54;12.20;99.90
9998;DHT22;5038;53.064;8.624;2022-09-12T05:06:25;12.20;99.90
9998;DHT22;5038;53.064;8.624;2022-09-12T05:08:54;12.20;99.90
9998;DHT22;5038;53.064;8.624;2022-09-12T05:11:25;12.20;99.90
9998;DHT22;5038;53.064;8.624;2022-09-12T05:14:14;12.20;99.90
9998;DHT22;5038;53.064;8.624;2022-09-12T05:16:42;12.20;99.90
9998;DHT22;5038;53.064;8.624;2022-09-12T05:19:15;12.10;99.90
9998;DHT22;5038;53.064;8.624;2022-09-12T05:21:44;12.10;99.90
9998;DHT22;5038;53.064;8.624;2022-09-12T05:24:12;12.20;99.90
9998;DHT22;5038;53.064;8.624;2022-09-12T05:26:41;12.20;99.90
9998;DHT22;5038;53.064;8.624;2022-09-12T05:29:09;12.20;99.90
9998;DHT22;5038;53.064;8.624;2022-09-12T05:31:39;12.20;99.90
9998;DHT22;5038;53.064;8.624;2022-09-12T05:34:07;12.20;99.90
9998;DHT22;5038;53.064;8.624;2022-09-12T05:36:36;12.20;99.90
9998;DHT22;5038;53.064;8.624;2022-09-12T05:39:04;12.30;99.90
9998;DHT22;5038;53.064;8.624;2022-09-12T05:41:33;12.30;99.90
9998;DHT22;5038;53.064;8.624;2022-09-12T05:44:04;12.30;99.90
9998;DHT22;5038;53.064;8.624;2022-09-12T05:46:36;12.30;99.90
9998;DHT22;5038;53.064;8.624;2022-09-12T05:49:06;12.30;99.90
9998;DHT22;5038;53.064;8.624;2022-09-12T05:51:35;12.40;99.90
9998;DHT22;5038;53.064;8.624;2022-09-12T05:54:05;12.40;99.90
9998;DHT22;5038;53.064;8.624;2022-09-12T05:56:37;12.40;99.90
9998;DHT22;5038;53.064;8.624;2022-09-12T05:59:11;12.50;99.90
9998;DHT22;5038;53.064;8.624;2022-09-12T06:01:39;12.50;99.90
9998;DHT22;5038;53.064;8.624;2022-09-12T06:04:08;12.50;99.90
9998;DHT22;5038;53.064;8.624;2022-09-12T06:06:40;12.60;99.90
9998;DHT22;5038;53.064;8.624;2022-09-12T06:09:12;12.70;99.90
9998;DHT22;5038;53.064;8.624;2022-09-12T06:11:43;12.80;99.90
9998;DHT22;5038;53.064;8.624;2022-09-12T06:14:14;12.90;99.90
9998;DHT22;5038;53.064;8.624;2022-09-12T06:16:43;13.00;99.90
9998;DHT22;5038;53.064;8.624;2022-09-12T06:19:15;13.20;99.90
9998;DHT22;5038;53.064;8.624;2022-09-12T06:21:44;13.40;99.90
9998;DHT22;5038;53.064;8.624;2022-09-12T06:24:13;13.60;99.90
9998;DHT22;5038;53.064;8.624;2022-09-12T06:26:41;13.70;99.90
9998;DHT22;5038;53.064;8.624;2022-09-12T06:29:11;13.90;99.90
9998;DHT22;5038;53.064;8.624;2022-09-12T06:31:41;14.00;99.90
9998;DHT22;5038;53.064;8.624;2022-09-12T06:34:11;14.20;99.90
9998;DHT22;5038;53.064;8.624;2022-09-12T06:36:42;14.30;99.90
9998;DHT22;5038;53.064;8.624;2022-09-12T06:39:11;14.40;99.90
9998;DHT22;5038;53.064;8.624;2022-09-12T06:41:40;14.50;99.90
9998;DHT22;5038;53.064;8.624;2022-09-12T06:44:14;14.70;99.90
9998;DHT22;5038;53.064;8.624;2022-09-12T06:46:42;14.80;99.90
9998;DHT22;5038;53.064;8.624;2022-09-12T06:49:11;14.90;99.90
9998;DHT22;5038;53.064;8.624;2022-09-12T06:51:40;15.00;99.90
9998;DHT22;5038;53.064;8.624;2022-09-12T06:54:11;15.10;99.90
9998;DHT22;5038;53.064;8.624;2022-09-12T06:56:40;15.20;99.90
9998;DHT22;5038;53.064;8.624;2022-09-12T06:59:08;15.30;99.90
9998;DHT22;5038;53.064;8.624;2022-09-12T07:01:39;15.40;99.90
9998;DHT22;5038;53.064;8.624;2022-09-12T07:04:08;15.50;99.90
9998;DHT22;5038;53.064;8.624;2022-09-12T07:06:38;15.40;99.90
9998;DHT22;5038;53.064;8.624;2022-09-12T07:09:10;15.50;99.90
9998;DHT22;5038;53.064;8.624;2022-09-12T07:11:40;15.50;99.90
9998;DHT22;5038;53.064;8.624;2022-09-12T07:14:10;15.50;99.90
9998;DHT22;5038;53.064;8.624;2022-09-12T07:16:41;15.50;99.90
9998;DHT22;5038;53.064;8.624;2022-09-12T07:19:10;15.60;99.90
9998;DHT22;5038;53.064;8.624;2022-09-12T07:21:38;15.60;99.90
9998;DHT22;5038;53.064;8.624;2022-09-12T07:24:07;15.60;99.90
9998;DHT22;5038;53.064;8.624;2022-09-12T07:26:36;15.70;99.90
9998;DHT22;5038;53.064;8.624;2022-09-12T07:29:05;15.80;99.90
9998;DHT22;5038;53.064;8.624;2022-09-12T07:31:56;15.80;99.90
9998;DHT22;5038;53.064;8.624;2022-09-12T07:34:25;15.90;99.90
9998;DHT22;5038;53.064;8.624;2022-09-12T07:36:53;15.90;99.90
9998;DHT22;5038;53.064;8.624;2022-09-12T07:39:21;16.00;99.90
9998;DHT22;5038;53.064;8.624;2022-09-12T07:41:50;16.10;99.90
9998;DHT22;5038;53.064;8.624;2022-09-12T07:44:18;16.20;99.90
9998;DHT22;5038;53.064;8.624;2022-09-12T07:46:47;16.30;99.90
9998;DHT22;5038;53.064;8.624;2022-09-12T07:49:17;16.50;99.90
9998;DHT22;5038;53.064;8.624;2022-09-12T07:51:45;16.60;99.90
9998;DHT22;5038;53.064;8.624;2022-09-12T07:54:14;16.80;99.90
9998;DHT22;5038;53.064;8.624;2022-09-12T07:56:43;16.90;99.90
9998;DHT22;5038;53.064;8.624;2022-09-12T07:59:11;17.10;99.90
9998;DHT22;5038;53.064;8.624;2022-09-12T08:01:55;17.10;99.90
9998;DHT22;5038;53.064;8.624;2022-09-12T08:04:25;17.20;99.90
9998;DHT22;5038;53.064;8.624;2022-09-12T08:06:53;17.30;99.90
9998;DHT22;5038;53.064;8.624;2022-09-12T08:09:21;17.30;99.90
9998;DHT22;5038;53.064;8.624;2022-09-12T08:11:49;17.40;99.90
9998;DHT22;5038;53.064;8.624;2022-09-12T08:14:17;17.40;99.90
9998;DHT22;5038;53.064;8.624;2022-09-12T08:16:46;17.50;99.90
9998;DHT22;5038;53.064;8.624;2022-09-12T08:19:15;17.60;99.90
9998;DHT22;5038;53.064;8.624;2022-09-12T08:21:44;17.60;99.90
9998;DHT22;5038;53.064;8.624;2022-09-12T08:24:12;17.70;99.90
9998;DHT22;5038;53.064;8.624;2022-09-12T08:26:44;17.80;99.90
9998;DHT22;5038;53.064;8.624;2022-09-12T08:29:12;17.80;99.90
9998;DHT22;5038;53.064;8.624;2022-09-12T08:31:40;17.90;99.90
9998;DHT22;5038;53.064;8.624;2022-09-12T08:34:08;17.90;99.90
9998;DHT22;5038;53.064;8.624;2022-09-12T08:36:36;18.00;99.90
9998;DHT22;5038;53.064;8.624;2022-09-12T08:39:06;18.10;99.90
9998;DHT22;5038;53.064;8.624;2022-09-12T08:41:37;18.20;99.90
9998;DHT22;5038;53.064;8.624;2022-09-12T08:44:18;18.20;99.90
9998;DHT22;5038;53.064;8.624;2022-09-12T08:47:04;18.30;99.90
9998;DHT22;5038;53.064;8.624;2022-09-12T08:49:38;18.40;99.90
9998;DHT22;5038;53.064;8.624;2022-09-12T08:52:12;18.50;99.90
9998;DHT22;5038;53.064;8.624;2022-09-12T08:54:44;18.50;99.90
9998;DHT22;5038;53.064;8.624;2022-09-12T08:57:13;18.60;99.90
9998;DHT22;5038;53.064;8.624;2022-09-12T08:59:43;18.70;99.90
9998;DHT22;5038;53.064;8.624;2022-09-12T09:02:30;18.80;99.90
9998;DHT22;5038;53.064;8.624;2022-09-12T09:05:03;18.80;99.90
9998;DHT22;5038;53.064;8.624;2022-09-12T09:08:08;19.00;99.90
9998;DHT22;5038;53.064;8.624;2022-09-12T09:10:47;19.00;99.90
9998;DHT22;5038;53.064;8.624;2022-09-12T09:13:31;19.10;99.90
9998;DHT22;5038;53.064;8.624;2022-09-12T09:16:21;19.20;99.90
9998;DHT22;5038;53.064;8.624;2022-09-12T09:18:54;19.30;99.90
9998;DHT22;5038;53.064;8.624;2022-09-12T09:21:26;19.40;99.90
9998;DHT22;5038;53.064;8.624;2022-09-12T09:24:01;19.50;99.90
9998;DHT22;5038;53.064;8.624;2022-09-12T09:26:40;19.60;99.90
9998;DHT22;5038;53.064;8.624;2022-09-12T09:29:16;19.60;99.90
9998;DHT22;5038;53.064;8.624;2022-09-12T09:31:47;19.70;99.90
9998;DHT22;5038;53.064;8.624;2022-09-12T09:34:19;19.80;99.90
9998;DHT22;5038;53.064;8.624;2022-09-12T09:36:51;19.80;99.90
9998;DHT22;5038;53.064;8.624;2022-09-12T09:39:29;19.90;99.90
9998;DHT22;5038;53.064;8.624;2022-09-12T09:42:10;19.90;99.90
9998;DHT22;5038;53.064;8.624;2022-09-12T09:44:39;20.00;99.90
9998;DHT22;5038;53.064;8.624;2022-09-12T09:47:09;20.00;99.90
9998;DHT22;5038;53.064;8.624;2022-09-12T09:49:38;20.10;99.90
9998;DHT22;5038;53.064;8.624;2022-09-12T09:52:07;20.20;99.90
9998;DHT22;5038;53.064;8.624;2022-09-12T09:54:42;20.20;99.90
9998;DHT22;5038;53.064;8.624;2022-09-12T10:00:30;20.30;99.90
9998;DHT22;5038;53.064;8.624;2022-09-12T10:03:22;20.40;99.90
9998;DHT22;5038;53.064;8.624;2022-09-12T10:05:52;20.40;99.90
9998;DHT22;5038;53.064;8.624;2022-09-12T10:08:22;20.50;99.90
9998;DHT22;5038;53.064;8.624;2022-09-12T10:10:57;20.50;99.90
9998;DHT22;5038;53.064;8.624;2022-09-12T10:13:39;20.60;99.90
9998;DHT22;5038;53.064;8.624;2022-09-12T10:16:19;20.60;99.90
9998;DHT22;5038;53.064;8.624;2022-09-12T10:18:49;20.70;99.90
9998;DHT22;5038;53.064;8.624;2022-09-12T10:21:27;20.80;99.90
9998;DHT22;5038;53.064;8.624;2022-09-12T10:24:01;20.80;99.90
9998;DHT22;5038;53.064;8.624;2022-09-12T10:26:34;20.90;99.90
9998;DHT22;5038;53.064;8.624;2022-09-12T10:29:13;20.90;99.90
9998;DHT22;5038;53.064;8.624;2022-09-12T10:31:47;21.00;99.90
9998;DHT22;5038;53.064;8.624;2022-09-12T10:34:27;21.00;99.90
9998;DHT22;5038;53.064;8.624;2022-09-12T10:37:01;21.10;99.90
9998;DHT22;5038;53.064;8.624;2022-09-12T10:39:30;21.00;99.90
9998;DHT22;5038;53.064;8.624;2022-09-12T10:42:00;21.10;99.90
9998;DHT22;5038;53.064;8.624;2022-09-12T10:44:30;21.10;99.90
9998;DHT22;5038;53.064;8.624;2022-09-12T10:47:18;21.20;99.90
9998;DHT22;5038;53.064;8.624;2022-09-12T10:49:47;21.20;99.90
9998;DHT22;5038;53.064;8.624;2022-09-12T10:52:19;21.20;99.90
9998;DHT22;5038;53.064;8.624;2022-09-12T10:54:49;21.30;99.90
9998;DHT22;5038;53.064;8.624;2022-09-12T10:57:31;21.40;99.90
9998;DHT22;5038;53.064;8.624;2022-09-12T11:00:07;21.50;99.90
9998;DHT22;5038;53.064;8.624;2022-09-12T11:03:01;21.60;99.90
9998;DHT22;5038;53.064;8.624;2022-09-12T11:05:50;21.60;99.90
9998;DHT22;5038;53.064;8.624;2022-09-12T11:08:45;21.80;99.90
9998;DHT22;5038;53.064;8.624;2022-09-12T11:11:30;21.80;99.90
9998;DHT22;5038;53.064;8.624;2022-09-12T11:14:12;21.90;99.90
9998;DHT22;5038;53.064;8.624;2022-09-12T11:16:51;21.90;99.90
9998;DHT22;5038;53.064;8.624;2022-09-12T11:22:40;22.10;99.90
9998;DHT22;5038;53.064;8.624;2022-09-12T11:25:21;22.10;99.90
9998;DHT22;5038;53.064;8.624;2022-09-12T11:28:05;22.10;99.90
9998;DHT22;5038;53.064;8.624;2022-09-12T11:30:50;22.20;99.90
9998;DHT22;5038;53.064;8.624;2022-09-12T11:33:40;22.20;99.90
9998;DHT22;5038;53.064;8.624;2022-09-12T11:36:22;22.20;99.90
9998;DHT22;5038;53.064;8.624;2022-09-12T11:39:01;22.30;99.90
9998;DHT22;5038;53.064;8.624;2022-09-12T11:41:33;22.30;99.90
9998;DHT22;5038;53.064;8.624;2022-09-12T11:44:10;22.40;99.90
9998;DHT22;5038;53.064;8.624;2022-09-12T11:46:42;22.50;99.90
9998;DHT22;5038;53.064;8.624;2022-09-12T11:49:23;22.50;99.90
9998;DHT22;5038;53.064;8.624;2022-09-12T11:51:59;22.60;99.90
9998;DHT22;5038;53.064;8.624;2022-09-12T11:54:34;22.60;99.90
9998;DHT22;5038;53.064;8.624;2022-09-12T11:57:10;22.70;99.90
9998;DHT22;5038;53.064;8.624;2022-09-12T11:59:43;22.70;99.90
9998;DHT22;5038;53.064;8.624;2022-09-12T12:02:21;22.80;99.90
9998;DHT22;5038;53.064;8.624;2022-09-12T12:05:01;22.80;99.90
9998;DHT22;5038;53.064;8.624;2022-09-12T12:07:37;22.80;99.90
9998;DHT22;5038;53.064;8.624;2022-09-12T12:10:24;22.80;99.90
9998;DHT22;5038;53.064;8.624;2022-09-12T12:12:55;22.80;99.90
9998;DHT22;5038;53.064;8.624;2022-09-12T12:15:24;22.80;99.90
9998;DHT22;5038;53.064;8.624;2022-09-12T12:18:02;22.80;99.90
9998;DHT22;5038;53.064;8.624;2022-09-12T12:20:31;22.80;99.90
9998;DHT22;5038;53.064;8.624;2022-09-12T12:23:00;22.90;99.90
9998;DHT22;5038;53.064;8.624;2022-09-12T12:25:49;22.90;99.90
9998;DHT22;5038;53.064;8.624;2022-09-12T12:31:23;22.90;99.90
9998;DHT22;5038;53.064;8.624;2022-09-12T12:34:21;23.00;99.90
9998;DHT22;5038;53.064;8.624;2022-09-12T12:36:49;23.00;99.90
9998;DHT22;5038;53.064;8.624;2022-09-12T12:43:26;23.10;99.90
9998;DHT22;5038;53.064;8.624;2022-09-12T12:46:06;23.20;99.90
9998;DHT22;5038;53.064;8.624;2022-09-12T12:48:56;23.20;99.90
9998;DHT22;5038;53.064;8.624;2022-09-12T12:57:39;23.40;99.90
9998;DHT22;5038;53.064;8.624;2022-09-12T13:00:28;23.50;99.90
9998;DHT22;5038;53.064;8.624;2022-09-12T13:03:00;23.50;99.80
9998;DHT22;5038;53.064;8.624;2022-09-12T13:05:37;23.60;99.70
9998;DHT22;5038;53.064;8.624;2022-09-12T13:08:08;23.60;99.30
9998;DHT22;5038;53.064;8.624;2022-09-12T13:10:37;23.60;99.10
9998;DHT22;5038;53.064;8.624;2022-09-12T13:13:06;23.60;99.00
9998;DHT22;5038;53.064;8.624;2022-09-12T13:15:50;23.60;99.00
9998;DHT22;5038;53.064;8.624;2022-09-12T13:18:23;23.70;98.80
9998;DHT22;5038;53.064;8.624;2022-09-12T13:21:01;23.70;98.80
9998;DHT22;5038;53.064;8.624;2022-09-12T13:23:31;23.70;98.80
9998;DHT22;5038;53.064;8.624;2022-09-12T13:26:02;23.80;98.80
9998;DHT22;5038;53.064;8.624;2022-09-12T13:28:31;23.80;98.70
9998;DHT22;5038;53.064;8.624;2022-09-12T13:31:02;23.90;98.70
9998;DHT22;5038;53.064;8.624;2022-09-12T13:33:37;24.00;98.60
9998;DHT22;5038;53.064;8.624;2022-09-12T13:36:38;24.00;98.50
9998;DHT22;5038;53.064;8.624;2022-09-12T13:39:15;24.00;98.40
9998;DHT22;5038;53.064;8.624;2022-09-12T13:44:41;24.10;98.10
9998;DHT22;5038;53.064;8.624;2022-09-12T13:47:15;24.10;98.10
9998;DHT22;5038;53.064;8.624;2022-09-12T13:49:45;24.20;97.90
9998;DHT22;5038;53.064;8.624;2022-09-12T13:52:16;24.20;97.80
9998;DHT22;5038;53.064;8.624;2022-09-12T13:54:48;24.20;97.60
9998;DHT22;5038;53.064;8.624;2022-09-12T13:57:31;24.30;97.50
9998;DHT22;5038;53.064;8.624;2022-09-12T14:00:06;24.30;97.30
9998;DHT22;5038;53.064;8.624;2022-09-12T14:02:39;24.30;97.20
9998;DHT22;5038;53.064;8.624;2022-09-12T14:05:13;24.30;97.00
9998;DHT22;5038;53.064;8.624;2022-09-12T14:07:53;24.40;97.00
9998;DHT22;5038;53.064;8.624;2022-09-12T14:10:28;24.40;96.90
9998;DHT22;5038;53.064;8.624;2022-09-12T14:12:58;24.50;96.80
9998;DHT22;5038;53.064;8.624;2022-09-12T14:15:29;24.50;96.70
9998;DHT22;5038;53.064;8.624;2022-09-12T14:18:00;24.50;96.50
9998;DHT22;5038;53.064;8.624;2022-09-12T14:20:30;24.50;96.40
9998;DHT22;5038;53.064;8.624;2022-09-12T14:23:00;24.50;96.40
9998;DHT22;5038;53.064;8.624;2022-09-12T14:25:35;24.50;96.30
9998;DHT22;5038;53.064;8.624;2022-09-12T14:28:05;24.50;96.20
9998;DHT22;5038;53.064;8.624;2022-09-12T14:30:34;24.50;96.10
9998;DHT22;5038;53.064;8.624;2022-09-12T14:33:17;24.50;95.90
9998;DHT22;5038;53.064;8.624;2022-09-12T14:35:47;24.50;95.40
9998;DHT22;5038;53.064;8.624;2022-09-12T14:38:24;24.40;95.40
9998;DHT22;5038;53.064;8.624;2022-09-12T14:41:00;24.40;95.50
9998;DHT22;5038;53.064;8.624;2022-09-12T14:43:31;24.40;95.20
9998;DHT22;5038;53.064;8.624;2022-09-12T14:46:01;24.40;95.40
9998;DHT22;5038;53.064;8.624;2022-09-12T14:48:34;24.40;95.20
9998;DHT22;5038;53.064;8.624;2022-09-12T14:51:04;24.40;95.20
9998;DHT22;5038;53.064;8.624;2022-09-12T14:53:34;24.40;95.10
9998;DHT22;5038;53.064;8.624;2022-09-12T14:56:07;24.40;95.20
9998;DHT22;5038;53.064;8.624;2022-09-12T14:58:36;24.40;95.10
9998;DHT22;5038;53.064;8.624;2022-09-12T15:01:20;24.30;95.10
9998;DHT22;5038;53.064;8.624;2022-09-12T15:03:52;24.30;95.10
9998;DHT22;5038;53.064;8.624;2022-09-12T15:06:25;24.30;95.20
9998;DHT22;5038;53.064;8.624;2022-09-12T15:08:56;24.30;95.10
9998;DHT22;5038;53.064;8.624;2022-09-12T15:11:26;24.30;95.10
9998;DHT22;5038;53.064;8.624;2022-09-12T15:13:54;24.30;95.20
9998;DHT22;5038;53.064;8.624;2022-09-12T15:16:22;24.30;95.20
9998;DHT22;5038;53.064;8.624;2022-09-12T15:18:52;24.30;95.20
9998;DHT22;5038;53.064;8.624;2022-09-12T15:21:20;24.30;95.10
9998;DHT22;5038;53.064;8.624;2022-09-12T15:23:49;24.20;95.20
9998;DHT22;5038;53.064;8.624;2022-09-12T15:26:19;24.20;95.20
9998;DHT22;5038;53.064;8.624;2022-09-12T15:28:48;24.20;95.30
9998;DHT22;5038;53.064;8.624;2022-09-12T15:31:22;24.20;95.30
9998;DHT22;5038;53.064;8.624;2022-09-12T15:33:54;24.20;95.30
9998;DHT22;5038;53.064;8.624;2022-09-12T15:36:23;24.20;95.40
9998;DHT22;5038;53.064;8.624;2022-09-12T15:38:52;24.10;95.30
9998;DHT22;5038;53.064;8.624;2022-09-12T15:41:22;24.10;95.30
9998;DHT22;5038;53.064;8.624;2022-09-12T15:43:50;24.10;95.30
9998;DHT22;5038;53.064;8.624;2022-09-12T15:46:19;24.10;95.40
9998;DHT22;5038;53.064;8.624;2022-09-12T15:48:47;24.00;95.30
9998;DHT22;5038;53.064;8.624;2022-09-12T15:51:19;24.00;95.30
9998;DHT22;5038;53.064;8.624;2022-09-12T15:53:49;24.00;95.30
9998;DHT22;5038;53.064;8.624;2022-09-12T15:56:19;23.90;95.20
9998;DHT22;5038;53.064;8.624;2022-09-12T15:58:48;23.90;95.30
9998;DHT22;5038;53.064;8.624;2022-09-12T16:01:25;23.90;95.40
9998;DHT22;5038;53.064;8.624;2022-09-12T16:03:53;23.80;95.50
9998;DHT22;5038;53.064;8.624;2022-09-12T16:06:23;23.80;95.50
9998;DHT22;5038;53.064;8.624;2022-09-12T16:08:51;23.80;95.60
9998;DHT22;5038;53.064;8.624;2022-09-12T16:11:21;23.80;95.60
9998;DHT22;5038;53.064;8.624;2022-09-12T16:13:50;23.80;95.60
9998;DHT22;5038;53.064;8.624;2022-09-12T16:16:19;23.80;95.70
9998;DHT22;5038;53.064;8.624;2022-09-12T16:18:47;23.70;95.80
9998;DHT22;5038;53.064;8.624;2022-09-12T16:21:15;23.70;95.80
9998;DHT22;5038;53.064;8.624;2022-09-12T16:23:46;23.70;95.90
9998;DHT22;5038;53.064;8.624;2022-09-12T16:26:15;23.70;95.90
9998;DHT22;5038;53.064;8.624;2022-09-12T16:28:44;23.70;95.90
9998;DHT22;5038;53.064;8.624;2022-09-12T16:31:12;23.70;96.00
9998;DHT22;5038;53.064;8.624;2022-09-12T16:33:41;23.70;96.00
9998;DHT22;5038;53.064;8.624;2022-09-12T16:36:10;23.70;96.00
9998;DHT22;5038;53.064;8.624;2022-09-12T16:38:43;23.70;96.20
9998;DHT22;5038;53.064;8.624;2022-09-12T16:41:14;23.80;96.30
9998;DHT22;5038;53.064;8.624;2022-09-12T16:43:43;23.80;96.70
9998;DHT22;5038;53.064;8.624;2022-09-12T16:46:13;23.80;96.40
9998;DHT22;5038;53.064;8.624;2022-09-12T16:48:42;23.80;96.30
9998;DHT22;5038;53.064;8.624;2022-09-12T16:51:19;23.80;96.40
9998;DHT22;5038;53.064;8.624;2022-09-12T16:53:48;23.70;96.40
9998;DHT22;5038;53.064;8.624;2022-09-12T16:56:19;23.70;96.40
9998;DHT22;5038;53.064;8.624;2022-09-12T16:58:47;23.70;96.50
9998;DHT22;5038;53.064;8.624;2022-09-12T17:01:17;23.60;96.50